createdAt,value
2018-11-14T00:00:39.241Z,4.13
2018-11-14T00:03:09.336Z,3.17
2018-11-14T00:05:39.271Z,5.77
2018-11-14T00:08:09.091Z,4.77
2018-11-14T00:10:38.787Z,51.03
2018-11-14T00:13:08.550Z,7.37
2018-11-14T00:15:38.788Z,47.63
2018-11-14T00:18:08.558Z,48.37
2018-11-14T00:20:38.297Z,22.57
2018-11-14T00:23:08.061Z,13.70
2018-11-14T00:25:37.843Z,9.10
2018-11-14T00:28:07.617Z,11.47
2018-11-14T00:30:37.315Z,4.80
2018-11-14T00:33:07.222Z,29.40
2018-11-14T00:35:37.062Z,21.40
2018-11-14T00:38:06.818Z,15.37
2018-11-14T00:40:36.525Z,35.17
2018-11-14T00:43:06.717Z,24.83
2018-11-14T00:45:36.504Z,9.27
2018-11-14T00:48:07.011Z,13.47
2018-11-14T00:50:36.688Z,27.47
2018-11-14T00:53:06.551Z,10.47
2018-11-14T00:55:36.299Z,13.43
2018-11-14T00:58:06.442Z,6.97
2018-11-14T01:00:36.263Z,40.27
2018-11-14T01:03:06.149Z,3.63
2018-11-14T01:05:35.799Z,23.70
2018-11-14T01:08:05.689Z,4.23
2018-11-14T01:10:35.456Z,15.47
2018-11-14T01:13:05.632Z,8.67
2018-11-14T01:15:35.282Z,4.67
2018-11-14T01:18:06.153Z,10.20
2018-11-14T01:20:35.753Z,26.40
2018-11-14T01:23:06.530Z,19.80
2018-11-14T01:25:36.543Z,16.67
2018-11-14T01:28:06.470Z,11.80
2018-11-14T01:30:36.277Z,6.43
2018-11-14T01:33:06.567Z,4.43
2018-11-14T01:35:36.395Z,4.13
2018-11-14T01:38:06.504Z,4.20
2018-11-14T01:40:36.184Z,6.60
2018-11-14T01:43:06.041Z,6.27
2018-11-14T01:45:35.808Z,14.93
2018-11-14T01:48:06.098Z,95.60
2018-11-14T01:50:36.085Z,39.83
2018-11-14T01:53:05.858Z,27.50
2018-11-14T01:55:35.672Z,26.43
2018-11-14T01:58:06.082Z,24.43
2018-11-14T02:00:35.828Z,27.20
2018-11-14T02:03:05.972Z,20.23
2018-11-14T02:05:35.967Z,30.97
2018-11-14T02:08:05.958Z,23.80
2018-11-14T02:10:35.794Z,15.13
2018-11-14T02:13:06.037Z,41.37
2018-11-14T02:15:36.571Z,24.43
2018-11-14T02:18:06.914Z,14.67
2018-11-14T02:20:36.638Z,24.53
2018-11-14T02:23:06.747Z,75.97
2018-11-14T02:25:36.484Z,18.57
2018-11-14T02:28:06.762Z,8.70
2018-11-14T02:30:38.323Z,49.00
2018-11-14T02:33:08.075Z,27.97
2018-11-14T02:35:37.807Z,20.80
2018-11-14T02:38:07.673Z,28.90
2018-11-14T02:40:37.443Z,43.00
2018-11-14T02:43:07.389Z,19.10
2018-11-14T02:45:38.279Z,32.90
2018-11-14T02:48:08.194Z,39.60
2018-11-14T02:50:38.099Z,44.50
2018-11-14T02:53:07.937Z,41.37
2018-11-14T02:55:37.747Z,22.37
2018-11-14T02:58:07.570Z,19.93
2018-11-14T03:00:37.303Z,54.80
2018-11-14T03:03:07.065Z,31.23
2018-11-14T03:05:36.811Z,30.70
2018-11-14T03:08:07.811Z,29.63
2018-11-14T03:10:37.576Z,19.53
2018-11-14T03:13:07.432Z,16.30
2018-11-14T03:15:37.192Z,12.93
2018-11-14T03:18:07.258Z,20.20
2018-11-14T03:20:37.223Z,11.53
2018-11-14T03:23:07.208Z,30.87
2018-11-14T03:25:36.959Z,57.63
2018-11-14T03:28:08.518Z,8.67
2018-11-14T03:30:38.398Z,22.47
2018-11-14T03:33:08.398Z,12.87
2018-11-14T03:35:43.219Z,12.20
2018-11-14T03:38:13.127Z,23.50
2018-11-14T03:40:43.091Z,26.83
2018-11-14T03:43:12.997Z,42.07
2018-11-14T03:45:42.717Z,10.63
2018-11-14T03:48:12.893Z,20.13
2018-11-14T03:50:42.719Z,17.37
2018-11-14T03:53:13.262Z,14.60
2018-11-14T03:55:43.212Z,19.37
2018-11-14T03:58:13.790Z,21.37
2018-11-14T04:00:43.559Z,22.40
2018-11-14T04:03:13.436Z,10.00
2018-11-14T04:05:43.316Z,41.43
2018-11-14T04:08:13.789Z,50.80
2018-11-14T04:10:43.663Z,51.43
2018-11-14T04:13:14.380Z,20.23
2018-11-14T04:15:44.383Z,52.73
2018-11-14T04:18:14.287Z,51.20
2018-11-14T04:20:44.184Z,46.53
2018-11-14T04:23:14.124Z,65.87
2018-11-14T04:25:45.013Z,9.13
2018-11-14T04:28:16.342Z,30.80
2018-11-14T04:30:46.230Z,18.00
2018-11-14T04:33:16.097Z,13.37
2018-11-14T04:35:45.791Z,7.23
2018-11-14T04:38:16.501Z,16.43
2018-11-14T04:40:46.427Z,22.83
2018-11-14T04:43:16.390Z,29.60
2018-11-14T04:45:46.782Z,14.07
2018-11-14T04:48:16.924Z,17.63
2018-11-14T04:50:46.609Z,8.13
2018-11-14T04:53:16.672Z,6.33
2018-11-14T04:55:46.680Z,6.53
2018-11-14T04:58:20.233Z,4.83
2018-11-14T05:00:54.577Z,21.30
2018-11-14T05:03:24.541Z,21.77
2018-11-14T05:05:54.279Z,6.83
2018-11-14T05:08:24.335Z,14.57
2018-11-14T05:10:54.079Z,9.87
2018-11-14T05:13:23.950Z,12.87
2018-11-14T05:15:53.973Z,13.13
2018-11-14T05:18:24.059Z,11.93
2018-11-14T05:20:53.859Z,11.63
2018-11-14T05:23:23.853Z,14.40
2018-11-14T05:25:53.768Z,10.63
2018-11-14T05:28:23.623Z,11.80
2018-11-14T05:30:53.476Z,36.63
2018-11-14T05:33:23.326Z,6.30
2018-11-14T05:35:53.656Z,11.60
2018-11-14T05:38:24.495Z,4.30
2018-11-14T05:40:54.335Z,9.70
2018-11-14T05:43:24.416Z,17.83
2018-11-14T05:45:54.279Z,12.97
2018-11-14T05:48:23.977Z,20.43
2018-11-14T05:50:53.902Z,16.33
2018-11-14T05:53:23.892Z,37.47
2018-11-14T05:55:53.733Z,10.57
2018-11-14T05:58:23.612Z,6.67
2018-11-14T06:00:53.527Z,10.00
2018-11-14T06:03:23.255Z,25.80
2018-11-14T06:05:53.150Z,32.63
2018-11-14T06:08:23.078Z,18.97
2018-11-14T06:10:53.231Z,13.30
2018-11-14T06:13:23.059Z,22.00
2018-11-14T06:15:52.808Z,35.93
2018-11-14T06:18:22.596Z,26.33
2018-11-14T06:20:52.417Z,30.57
2018-11-14T06:23:22.326Z,21.73
2018-11-14T06:25:52.148Z,49.43
2018-11-14T06:28:22.047Z,18.93
2018-11-14T06:30:51.789Z,30.17
2018-11-14T06:33:21.568Z,11.70
2018-11-14T06:35:51.274Z,7.93
2018-11-14T06:38:21.250Z,28.07
2018-11-14T06:40:51.159Z,5.20
2018-11-14T06:43:20.868Z,74.60
2018-11-14T06:45:50.671Z,20.27
2018-11-14T06:48:20.422Z,3.43
2018-11-14T06:50:50.157Z,11.67
2018-11-14T06:53:20.271Z,216.13
2018-11-14T06:55:50.130Z,38.67
2018-11-14T06:58:20.015Z,39.73
2018-11-14T07:00:49.987Z,75.07
2018-11-14T07:03:19.844Z,36.07
2018-11-14T07:05:49.681Z,42.00
2018-11-14T07:08:19.323Z,7.57
2018-11-14T07:10:49.383Z,16.03
2018-11-14T07:13:19.378Z,10.30
2018-11-14T07:15:49.129Z,23.80
2018-11-14T07:18:19.312Z,21.47
2018-11-14T07:20:49.270Z,28.13
2018-11-14T07:23:24.052Z,11.73
2018-11-14T07:25:53.784Z,31.60
2018-11-14T07:28:23.459Z,7.50
2018-11-14T07:30:53.138Z,14.10
2018-11-14T07:33:22.979Z,8.30
2018-11-14T07:35:52.620Z,30.50
2018-11-14T07:38:40.457Z,26.43
2018-11-14T07:41:13.121Z,34.17
2018-11-14T07:43:43.345Z,17.53
2018-11-14T07:46:14.336Z,43.70
2018-11-14T07:48:44.778Z,30.53
2018-11-14T07:51:14.559Z,5.77
2018-11-14T07:53:44.397Z,34.33
2018-11-14T07:56:14.247Z,3.87
2018-11-14T07:58:43.977Z,75.90
2018-11-14T08:01:14.067Z,64.13
2018-11-14T08:03:43.917Z,38.87
2018-11-14T08:06:14.440Z,6.80
2018-11-14T08:08:44.437Z,31.93
2018-11-14T08:11:14.444Z,3.77
2018-11-14T08:13:45.441Z,9.43
2018-11-14T08:16:15.127Z,35.50
2018-11-14T08:18:44.961Z,17.43
2018-11-14T08:21:14.724Z,36.40
2018-11-14T08:23:44.440Z,34.47
2018-11-14T08:26:14.285Z,23.90
2018-11-14T08:28:44.017Z,56.27
2018-11-14T08:31:13.811Z,54.93
2018-11-14T08:33:43.557Z,46.33
2018-11-14T08:36:14.238Z,87.90
2018-11-14T08:38:43.996Z,89.83
2018-11-14T08:41:13.668Z,21.83
2018-11-14T08:43:43.642Z,20.97
2018-11-14T08:46:14.263Z,35.67
2018-11-14T08:48:44.075Z,5.33
2018-11-14T08:51:13.946Z,7.93
2018-11-14T08:53:43.704Z,4.10
2018-11-14T08:56:13.920Z,5.97
2018-11-14T08:58:43.670Z,3.43
2018-11-14T09:01:13.539Z,2.83
2018-11-14T09:03:43.286Z,8.03
2018-11-14T09:06:13.437Z,5.97
2018-11-14T09:08:43.136Z,5.37
2018-11-14T09:11:13.789Z,4.73
2018-11-14T09:13:43.600Z,5.07
2018-11-14T09:16:14.235Z,5.10
2018-11-14T09:18:44.294Z,5.73
2018-11-14T09:21:14.047Z,5.83
2018-11-14T09:23:43.797Z,5.77
2018-11-14T09:26:13.644Z,6.40
2018-11-14T09:28:43.417Z,6.37
2018-11-14T09:31:13.218Z,6.37
2018-11-14T09:33:43.012Z,8.57
2018-11-14T09:36:13.190Z,6.47
2018-11-14T09:38:43.145Z,5.60
2018-11-14T09:41:12.964Z,9.10
2018-11-14T09:43:43.036Z,5.90
2018-11-14T09:46:13.827Z,5.37
2018-11-14T09:48:43.630Z,7.40
2018-11-14T09:51:13.532Z,6.03
2018-11-14T09:53:43.452Z,6.27
2018-11-14T09:56:13.584Z,9.10
2018-11-14T09:58:43.292Z,10.40
2018-11-14T10:01:13.154Z,7.20
2018-11-14T10:03:42.823Z,8.03
2018-11-14T10:06:12.895Z,10.67
2018-11-14T10:08:43.790Z,9.57
2018-11-14T10:11:13.623Z,10.83
2018-11-14T10:13:43.472Z,15.50
2018-11-14T10:16:13.505Z,10.47
2018-11-14T10:18:43.179Z,7.63
2018-11-14T10:21:12.982Z,9.03
2018-11-14T10:23:42.772Z,10.33
2018-11-14T10:26:13.299Z,9.67
2018-11-14T10:28:43.078Z,12.03
2018-11-14T10:31:12.878Z,9.40
2018-11-14T10:33:42.608Z,9.63
2018-11-14T10:36:12.809Z,10.57
2018-11-14T10:38:42.558Z,10.00
2018-11-14T10:41:12.354Z,11.07
2018-11-14T10:43:42.686Z,9.57
2018-11-14T10:46:12.902Z,10.20
2018-11-14T10:48:42.549Z,11.30
2018-11-14T10:51:12.257Z,11.90
2018-11-14T10:53:41.917Z,11.07
2018-11-14T10:56:12.222Z,9.27
2018-11-14T10:58:41.966Z,15.37
2018-11-14T11:01:16.831Z,10.83
2018-11-14T11:05:53.114Z,12.77
2018-11-14T11:08:29.901Z,9.03
2018-11-14T11:11:04.939Z,11.97
2018-11-14T11:13:39.807Z,9.33
2018-11-14T11:16:14.862Z,9.83
2018-11-14T11:18:44.621Z,7.93
2018-11-14T11:21:14.255Z,8.93
2018-11-14T11:23:43.939Z,10.47
2018-11-14T11:26:14.239Z,9.47
2018-11-14T11:28:43.870Z,7.57
2018-11-14T11:31:13.548Z,7.27
2018-11-14T11:33:43.576Z,9.10
2018-11-14T11:36:14.051Z,8.20
2018-11-14T11:38:43.871Z,7.13
2018-11-14T11:41:13.574Z,10.67
2018-11-14T11:43:43.331Z,8.33
2018-11-14T11:46:13.416Z,7.20
2018-11-14T11:48:43.267Z,8.53
2018-11-14T11:51:13.355Z,11.93
2018-11-14T11:53:43.181Z,8.47
2018-11-14T11:56:13.433Z,8.60
2018-11-14T11:58:43.118Z,9.50
2018-11-14T12:01:12.693Z,8.73
2018-11-14T12:03:42.462Z,9.97
2018-11-14T12:06:13.028Z,9.33
2018-11-14T12:08:43.644Z,9.33
2018-11-14T12:11:13.239Z,10.90
2018-11-14T12:13:42.893Z,11.43
2018-11-14T12:16:13.577Z,10.57
2018-11-14T12:18:43.306Z,10.17
2018-11-14T12:21:12.898Z,10.07
2018-11-14T12:23:42.572Z,11.57
2018-11-14T12:26:12.895Z,10.13
2018-11-14T12:28:42.895Z,10.50
2018-11-14T12:31:12.650Z,9.13
2018-11-14T12:33:42.254Z,10.27
2018-11-14T12:36:12.154Z,11.03
2018-11-14T12:38:41.824Z,10.97
2018-11-14T12:41:11.402Z,9.80
2018-11-14T12:43:41.079Z,10.97
2018-11-14T12:46:11.030Z,9.57
2018-11-14T12:48:40.628Z,11.33
2018-11-14T12:51:10.557Z,9.27
2018-11-14T12:53:40.280Z,9.53
2018-11-14T12:56:10.878Z,10.20
2018-11-14T12:58:40.526Z,10.80
2018-11-14T13:01:10.307Z,10.57
2018-11-14T13:03:39.949Z,10.27
2018-11-14T13:06:10.261Z,11.57
2018-11-14T13:08:39.965Z,11.17
2018-11-14T13:11:09.788Z,12.20
2018-11-14T13:13:45.509Z,9.40
2018-11-14T13:16:16.053Z,9.20
2018-11-14T13:18:45.925Z,11.20
2018-11-14T13:21:15.573Z,11.90
2018-11-14T13:23:45.285Z,10.33
2018-11-14T13:26:14.896Z,11.10
2018-11-14T13:28:44.531Z,12.53
2018-11-14T13:31:14.174Z,14.10
2018-11-14T13:33:43.989Z,10.93
2018-11-14T13:36:14.683Z,11.97
2018-11-14T13:38:44.453Z,12.93
2018-11-14T13:41:14.234Z,14.00
2018-11-14T13:43:43.976Z,13.53
2018-11-14T13:46:14.016Z,13.80
2018-11-14T13:48:44.119Z,13.13
2018-11-14T13:51:14.027Z,15.07
2018-11-14T13:53:43.501Z,13.10
2018-11-14T13:56:14.331Z,12.57
2018-11-14T13:58:44.112Z,12.90
2018-11-14T14:01:13.781Z,13.80
2018-11-14T14:03:43.431Z,14.17
2018-11-14T14:06:13.170Z,14.50
2018-11-14T14:08:42.834Z,14.60
2018-11-14T14:11:12.653Z,12.67
2018-11-14T14:13:47.347Z,13.33
2018-11-14T14:16:17.276Z,12.83
2018-11-14T14:18:46.944Z,13.07
2018-11-14T14:21:16.722Z,14.03
2018-11-14T14:23:46.364Z,13.90
2018-11-14T14:26:15.965Z,17.93
2018-11-14T14:28:45.677Z,18.50
2018-11-14T14:31:15.291Z,16.40
2018-11-14T14:33:45.107Z,17.60
2018-11-14T14:36:15.270Z,18.93
2018-11-14T14:38:44.921Z,15.57
2018-11-14T14:41:14.703Z,54.83
2018-11-14T14:43:44.452Z,23.20
2018-11-14T14:46:15.069Z,39.60
2018-11-14T14:48:44.961Z,29.67
2018-11-14T14:51:14.933Z,34.03
2018-11-14T14:53:44.628Z,83.30
2018-11-14T14:56:15.524Z,82.23
2018-11-14T14:58:45.208Z,70.93
2018-11-14T15:01:14.889Z,96.77
2018-11-14T15:03:44.541Z,168.30
2018-11-14T15:06:14.971Z,64.97
2018-11-14T15:08:44.577Z,61.20
2018-11-14T15:11:14.244Z,68.50
2018-11-14T15:13:43.916Z,37.63
2018-11-14T15:16:14.670Z,88.47
2018-11-14T15:18:44.393Z,65.70
2018-11-14T15:21:14.053Z,20.33
2018-11-14T15:23:43.788Z,32.57
2018-11-14T15:26:13.890Z,57.77
2018-11-14T15:28:43.486Z,52.50
2018-11-14T15:31:13.012Z,23.07
2018-11-14T15:33:42.624Z,68.30
2018-11-14T15:36:12.700Z,65.27
2018-11-14T15:38:42.295Z,20.20
2018-11-14T15:41:11.940Z,21.27
2018-11-14T15:43:41.570Z,42.93
2018-11-14T15:46:11.654Z,37.37
2018-11-14T15:48:41.383Z,89.37
2018-11-14T15:51:10.994Z,86.83
2018-11-14T15:53:40.575Z,101.17
2018-11-14T15:56:10.466Z,95.87
2018-11-14T15:58:40.071Z,90.60
2018-11-14T16:01:09.729Z,104.17
2018-11-14T16:03:39.268Z,43.23
2018-11-14T16:06:10.034Z,60.23
2018-11-14T16:08:39.619Z,30.20
2018-11-14T16:11:09.341Z,23.87
2018-11-14T16:13:39.062Z,32.20
2018-11-14T16:16:09.021Z,48.03
2018-11-14T16:18:38.791Z,35.47
2018-11-14T16:21:08.469Z,21.40
2018-11-14T16:23:39.234Z,34.57
2018-11-14T16:26:10.383Z,108.13
2018-11-14T16:28:40.078Z,157.27
2018-11-14T16:31:09.811Z,199.33
2018-11-14T16:33:39.423Z,94.60
2018-11-14T16:36:09.573Z,37.17
2018-11-14T16:38:39.235Z,103.50
2018-11-14T16:41:08.906Z,32.67
2018-11-14T16:43:38.524Z,58.60
2018-11-14T16:46:10.022Z,30.20
2018-11-14T16:48:39.710Z,29.23
2018-11-14T16:51:09.362Z,66.77
2018-11-14T16:53:40.036Z,34.13
2018-11-14T16:56:10.398Z,34.97
2018-11-14T16:58:40.371Z,53.43
2018-11-14T17:01:11.632Z,45.30
2018-11-14T17:03:41.409Z,39.63
2018-11-14T17:06:11.510Z,30.10
2018-11-14T17:08:41.216Z,39.43
2018-11-14T17:11:10.974Z,107.40
2018-11-14T17:13:40.849Z,49.57
2018-11-14T17:16:11.896Z,75.87
2018-11-14T17:18:41.665Z,28.37
2018-11-14T17:21:12.359Z,107.97
2018-11-14T17:23:42.055Z,30.33
2018-11-14T17:26:12.804Z,28.30
2018-11-14T17:28:42.667Z,34.30
2018-11-14T17:31:12.370Z,75.53
2018-11-14T17:33:42.182Z,31.23
2018-11-14T17:36:12.337Z,49.30
2018-11-14T17:38:42.075Z,40.80
2018-11-14T17:41:11.817Z,93.47
2018-11-14T17:43:41.539Z,35.73
2018-11-14T17:46:13.037Z,24.67
2018-11-14T17:48:42.781Z,82.97
2018-11-14T17:51:12.645Z,122.63
2018-11-14T17:53:42.292Z,161.63
2018-11-14T17:56:14.574Z,71.03
2018-11-14T17:58:44.241Z,90.13
2018-11-14T18:01:14.098Z,75.47
2018-11-14T18:03:43.865Z,29.70
2018-11-14T18:06:14.536Z,115.13
2018-11-14T18:08:44.234Z,70.77
2018-11-14T18:11:13.962Z,59.27
2018-11-14T18:13:43.669Z,72.70
2018-11-14T18:16:14.588Z,160.50
2018-11-14T18:18:44.283Z,131.30
2018-11-14T18:21:14.023Z,125.23
2018-11-14T18:23:43.703Z,44.50
2018-11-14T18:26:13.781Z,148.17
2018-11-14T18:28:43.457Z,198.33
2018-11-14T18:31:13.142Z,57.63
2018-11-14T18:33:42.671Z,106.27
2018-11-14T18:36:13.314Z,43.40
2018-11-14T18:38:42.890Z,38.73
2018-11-14T18:41:12.531Z,25.40
2018-11-14T18:43:42.295Z,52.63
2018-11-14T18:46:12.519Z,51.47
2018-11-14T18:48:43.242Z,56.67
2018-11-14T18:51:13.031Z,24.53
2018-11-14T18:53:42.609Z,32.00
2018-11-14T18:56:12.931Z,33.87
2018-11-14T18:58:42.596Z,82.67
2018-11-14T19:01:12.318Z,23.57
2018-11-14T19:03:42.189Z,45.60
2018-11-14T19:06:11.944Z,23.63
2018-11-14T19:08:41.702Z,30.80
2018-11-14T19:11:11.974Z,36.00
2018-11-14T19:13:41.661Z,34.33
2018-11-14T19:16:12.030Z,43.77
2018-11-14T19:18:42.163Z,39.00
2018-11-14T19:21:12.007Z,42.10
2018-11-14T19:23:41.679Z,65.17
2018-11-14T19:26:12.651Z,53.73
2018-11-14T19:28:42.329Z,60.97
2018-11-14T19:31:12.032Z,47.70
2018-11-14T19:33:41.881Z,49.30
2018-11-14T19:36:12.108Z,44.83
2018-11-14T19:38:41.911Z,51.97
2018-11-14T19:41:11.718Z,44.23
2018-11-14T19:43:41.396Z,39.07
2018-11-14T19:46:12.664Z,40.57
2018-11-14T19:48:42.347Z,46.50
2018-11-14T19:51:12.167Z,47.17
2018-11-14T19:53:41.986Z,43.90
2018-11-14T19:56:12.935Z,43.40
2018-11-14T19:58:42.822Z,44.93
2018-11-14T20:01:12.474Z,71.00
2018-11-14T20:03:42.195Z,40.10
2018-11-14T20:06:12.920Z,47.57
2018-11-14T20:08:43.262Z,44.50
2018-11-14T20:11:13.473Z,45.90
2018-11-14T20:13:44.032Z,44.83
2018-11-14T20:16:15.412Z,54.03
2018-11-14T20:18:45.272Z,42.33
2018-11-14T20:21:14.955Z,52.23
2018-11-14T20:23:44.779Z,48.30
2018-11-14T20:26:14.472Z,73.67
2018-11-14T20:28:45.870Z,64.97
2018-11-14T20:31:15.596Z,76.40
2018-11-14T20:33:45.201Z,79.27
2018-11-14T20:36:15.320Z,94.57
2018-11-14T20:38:44.994Z,100.83
2018-11-14T20:41:14.675Z,56.80
2018-11-14T20:43:44.422Z,49.13
2018-11-14T20:46:14.386Z,57.30
2018-11-14T20:48:44.122Z,51.43
2018-11-14T20:51:14.068Z,59.23
2018-11-14T20:53:43.722Z,54.37
2018-11-14T20:56:14.050Z,87.27
2018-11-14T20:58:43.604Z,67.77
2018-11-14T21:01:13.395Z,97.03
2018-11-14T21:03:43.162Z,58.23
2018-11-14T21:06:13.488Z,51.57
2018-11-14T21:08:43.186Z,60.47
2018-11-14T21:11:12.928Z,62.40
2018-11-14T21:13:42.915Z,54.97
2018-11-14T21:16:13.243Z,49.93
2018-11-14T21:18:43.960Z,68.80
2018-11-14T21:21:13.574Z,76.30
2018-11-14T21:23:44.231Z,61.20
2018-11-14T21:26:15.462Z,65.20
2018-11-14T21:28:45.121Z,54.23
2018-11-14T21:31:14.895Z,82.63
2018-11-14T21:33:44.601Z,68.40
2018-11-14T21:36:14.625Z,52.53
2018-11-14T21:38:45.216Z,60.70
2018-11-14T21:41:14.882Z,51.57
2018-11-14T21:43:44.618Z,63.90
2018-11-14T21:46:14.582Z,128.33
2018-11-14T21:48:44.291Z,35.90
2018-11-14T21:51:14.232Z,34.97
2018-11-14T21:53:43.913Z,22.20
2018-11-14T21:56:14.806Z,26.37
2018-11-14T21:58:45.249Z,19.23
2018-11-14T22:01:15.081Z,26.87
2018-11-14T22:03:44.697Z,27.30
2018-11-14T22:06:15.240Z,23.20
2018-11-14T22:08:45.742Z,20.80
2018-11-14T22:11:16.009Z,25.33
2018-11-14T22:13:45.699Z,27.00
2018-11-14T22:16:17.556Z,24.43
2018-11-14T22:18:47.309Z,26.50
2018-11-14T22:21:17.184Z,28.13
2018-11-14T22:23:47.234Z,38.50
2018-11-14T22:26:16.901Z,71.53
2018-11-14T22:28:46.647Z,75.07
2018-11-14T22:31:16.306Z,48.50
2018-11-14T22:33:45.920Z,41.00
2018-11-14T22:36:15.670Z,88.63
2018-11-14T22:38:45.532Z,94.50
2018-11-14T22:41:15.263Z,65.83
2018-11-14T22:43:44.860Z,47.77
2018-11-14T22:46:14.795Z,52.43
2018-11-14T22:48:44.552Z,56.57
2018-11-14T22:51:14.170Z,59.80
2018-11-14T22:53:43.802Z,59.30
2018-11-14T22:56:13.787Z,54.90
2018-11-14T22:58:43.534Z,58.80
2018-11-14T23:01:13.487Z,50.50
2018-11-14T23:03:43.379Z,45.80
2018-11-14T23:06:13.213Z,47.43
2018-11-14T23:08:42.941Z,46.77
2018-11-14T23:11:12.841Z,50.13
2018-11-14T23:13:42.432Z,46.90
2018-11-14T23:16:13.069Z,46.67
2018-11-14T23:18:42.775Z,48.57
2018-11-14T23:21:12.624Z,53.50
2018-11-14T23:23:42.267Z,55.17
2018-11-14T23:26:13.431Z,46.80
2018-11-14T23:28:43.067Z,37.73
2018-11-14T23:31:12.691Z,41.87
2018-11-14T23:33:43.242Z,31.97
2018-11-14T23:36:13.806Z,30.63
2018-11-14T23:38:43.508Z,27.40
2018-11-14T23:41:13.252Z,27.83
2018-11-14T23:43:42.961Z,25.37
2018-11-14T23:46:13.890Z,21.90
2018-11-14T23:48:43.571Z,19.63
2018-11-14T23:51:13.448Z,19.47
2018-11-14T23:53:44.146Z,19.80
2018-11-14T23:56:14.307Z,20.13
2018-11-14T23:58:43.954Z,16.70
